createdAt,value
2018-09-23T00:01:59.931Z,77.80
2018-09-23T00:04:30.458Z,77.80
2018-09-23T00:07:00.992Z,77.80
2018-09-23T00:09:30.887Z,77.70
2018-09-23T00:12:00.727Z,77.60
2018-09-23T00:14:30.681Z,77.70
2018-09-23T00:17:00.556Z,77.60
2018-09-23T00:19:30.983Z,77.70
2018-09-23T00:22:01.044Z,77.70
2018-09-23T00:24:30.968Z,77.90
2018-09-23T00:27:00.885Z,78.00
2018-09-23T00:29:35.800Z,78.30
2018-09-23T00:32:06.512Z,78.30
2018-09-23T00:34:36.123Z,78.50
2018-09-23T00:37:05.727Z,78.50
2018-09-23T00:39:35.341Z,78.50
2018-09-23T00:42:05.947Z,78.60
2018-09-23T00:44:36.655Z,78.70
2018-09-23T00:47:06.743Z,78.80
2018-09-23T00:49:37.847Z,79.00
2018-09-23T00:52:08.376Z,79.10
2018-09-23T00:54:38.221Z,79.10
2018-09-23T00:57:08.160Z,79.10
2018-09-23T00:59:37.811Z,79.20
2018-09-23T01:02:08.643Z,79.20
2018-09-23T01:04:38.472Z,79.10
2018-09-23T01:07:08.884Z,79.10
2018-09-23T01:09:38.903Z,79.10
2018-09-23T01:12:09.574Z,79.10
2018-09-23T01:14:39.343Z,79.60
2018-09-23T01:17:10.593Z,79.60
2018-09-23T01:19:41.230Z,79.60
2018-09-23T01:22:11.259Z,79.50
2018-09-23T01:24:41.211Z,79.50
2018-09-23T01:27:11.055Z,79.50
2018-09-23T01:29:41.043Z,79.50
2018-09-23T01:32:10.600Z,79.50
2018-09-23T01:34:40.518Z,79.60
2018-09-23T01:37:11.481Z,79.60
2018-09-23T01:39:42.075Z,79.60
2018-09-23T01:42:12.119Z,79.60
2018-09-23T01:44:42.363Z,79.70
2018-09-23T01:47:13.019Z,79.70
2018-09-23T01:49:43.276Z,79.70
2018-09-23T01:52:13.318Z,79.60
2018-09-23T01:54:43.515Z,80.50
2018-09-23T01:57:13.629Z,79.70
2018-09-23T01:59:44.055Z,79.80
2018-09-23T02:02:13.984Z,79.80
2018-09-23T02:04:44.723Z,81.00
2018-09-23T02:07:14.654Z,80.80
2018-09-23T02:09:44.857Z,80.70
2018-09-23T02:12:14.962Z,80.70
2018-09-23T02:14:45.499Z,80.60
2018-09-23T02:17:15.534Z,80.60
2018-09-23T02:19:45.470Z,80.50
2018-09-23T02:22:15.823Z,80.50
2018-09-23T02:24:46.380Z,80.50
2018-09-23T02:27:17.072Z,80.50
2018-09-23T02:29:46.959Z,80.50
2018-09-23T02:32:16.893Z,80.50
2018-09-23T02:34:46.775Z,80.50
2018-09-23T02:37:16.679Z,80.50
2018-09-23T02:39:47.276Z,80.50
2018-09-23T02:42:17.319Z,80.50
2018-09-23T02:44:47.032Z,80.70
2018-09-23T02:47:17.352Z,80.70
2018-09-23T02:49:47.175Z,80.80
2018-09-23T02:52:17.438Z,81.10
2018-09-23T02:54:47.444Z,81.20
2018-09-23T02:57:17.972Z,81.20
2018-09-23T02:59:47.764Z,81.20
2018-09-23T03:02:18.389Z,81.20
2018-09-23T03:04:48.244Z,81.20
2018-09-23T03:07:18.476Z,81.10
2018-09-23T03:09:48.504Z,81.10
2018-09-23T03:12:18.963Z,81.10
2018-09-23T03:14:48.515Z,81.20
2018-09-23T03:17:18.732Z,81.20
2018-09-23T03:19:48.664Z,81.40
2018-09-23T03:22:19.146Z,81.40
2018-09-23T03:24:49.759Z,81.40
2018-09-23T03:27:19.707Z,81.40
2018-09-23T03:29:49.532Z,81.50
2018-09-23T03:32:20.049Z,81.70
2018-09-23T03:34:49.968Z,81.80
2018-09-23T03:37:20.166Z,81.90
2018-09-23T03:39:50.114Z,81.90
2018-09-23T03:42:20.134Z,81.90
2018-09-23T03:44:50.723Z,81.90
2018-09-23T03:47:20.735Z,81.90
2018-09-23T03:49:50.428Z,81.80
2018-09-23T03:52:19.978Z,81.90
2018-09-23T03:54:50.516Z,81.80
2018-09-23T03:57:20.112Z,81.80
2018-09-23T03:59:50.012Z,81.80
2018-09-23T04:02:20.379Z,81.80
2018-09-23T04:04:50.818Z,81.80
2018-09-23T04:07:20.719Z,81.70
2018-09-23T04:09:50.635Z,81.70
2018-09-23T04:12:20.807Z,81.80
2018-09-23T04:14:50.765Z,81.70
2018-09-23T04:17:20.988Z,81.80
2018-09-23T04:19:51.541Z,81.70
2018-09-23T04:22:21.728Z,81.70
2018-09-23T04:24:51.656Z,81.70
2018-09-23T04:27:22.168Z,81.70
2018-09-23T04:29:53.080Z,82.10
2018-09-23T04:32:23.095Z,82.20
2018-09-23T04:34:53.111Z,82.20
2018-09-23T04:37:22.750Z,82.20
2018-09-23T04:39:52.667Z,82.10
2018-09-23T04:42:22.873Z,82.00
2018-09-23T04:44:52.844Z,82.10
2018-09-23T04:47:22.532Z,82.10
2018-09-23T04:49:52.603Z,82.10
2018-09-23T04:52:23.339Z,82.20
2018-09-23T04:54:53.597Z,82.20
2018-09-23T04:57:24.293Z,83.10
2018-09-23T04:59:54.148Z,83.00
2018-09-23T05:02:24.384Z,82.90
2018-09-23T05:04:54.755Z,82.80
2018-09-23T05:07:25.293Z,82.70
2018-09-23T05:09:56.319Z,82.60
2018-09-23T05:12:26.155Z,82.60
2018-09-23T05:14:56.111Z,82.60
2018-09-23T05:17:25.739Z,82.60
2018-09-23T05:19:55.246Z,84.20
2018-09-23T05:22:25.311Z,83.90
2018-09-23T05:24:55.119Z,83.60
2018-09-23T05:27:25.661Z,83.40
2018-09-23T05:29:55.592Z,83.30
2018-09-23T05:32:25.863Z,83.10
2018-09-23T05:34:55.716Z,83.10
2018-09-23T05:37:25.611Z,83.00
2018-09-23T05:39:56.630Z,82.90
2018-09-23T05:42:26.820Z,82.80
2018-09-23T05:44:56.346Z,82.50
2018-09-23T05:47:26.278Z,82.40
2018-09-23T05:49:56.912Z,82.40
2018-09-23T05:52:27.948Z,82.20
2018-09-23T05:54:58.123Z,82.00
2018-09-23T05:57:28.016Z,81.80
2018-09-23T05:59:59.583Z,81.40
2018-09-23T06:02:30.421Z,81.20
2018-09-23T06:05:00.949Z,80.80
2018-09-23T06:07:31.540Z,80.70
2018-09-23T06:10:02.263Z,80.60
2018-09-23T06:12:32.434Z,80.10
2018-09-23T06:15:02.343Z,79.80
2018-09-23T06:17:32.247Z,79.80
2018-09-23T06:20:03.704Z,79.70
2018-09-23T06:22:34.347Z,79.50
2018-09-23T06:25:05.478Z,79.30
2018-09-23T06:27:35.583Z,78.70
2018-09-23T06:30:05.996Z,78.50
2018-09-23T06:32:36.127Z,78.20
2018-09-23T06:35:06.690Z,78.00
2018-09-23T06:37:36.936Z,77.90
2018-09-23T06:40:07.093Z,77.80
2018-09-23T06:42:37.306Z,77.70
2018-09-23T06:45:07.545Z,77.40
2018-09-23T06:47:37.543Z,77.10
2018-09-23T06:50:07.618Z,76.80
2018-09-23T06:52:38.290Z,76.60
2018-09-23T06:55:09.131Z,76.20
2018-09-23T06:57:39.868Z,76.10
2018-09-23T07:00:09.889Z,75.90
2018-09-23T07:02:39.887Z,75.80
2018-09-23T07:05:09.997Z,75.20
2018-09-23T07:07:40.035Z,75.20
2018-09-23T07:10:10.160Z,75.70
2018-09-23T07:12:39.903Z,75.70
2018-09-23T07:15:10.499Z,75.60
2018-09-23T07:17:40.357Z,75.30
2018-09-23T07:20:10.250Z,75.10
2018-09-23T07:22:40.579Z,75.10
2018-09-23T07:25:11.019Z,74.90
2018-09-23T07:27:40.735Z,74.70
2018-09-23T07:30:10.877Z,74.70
2018-09-23T07:32:40.743Z,74.40
2018-09-23T07:35:10.848Z,73.70
2018-09-23T07:37:41.379Z,73.20
2018-09-23T07:40:11.395Z,72.50
2018-09-23T07:42:41.071Z,71.80
2018-09-23T07:45:10.936Z,70.50
2018-09-23T07:47:41.348Z,70.00
2018-09-23T07:50:11.673Z,69.60
2018-09-23T07:52:42.290Z,69.40
2018-09-23T07:55:12.176Z,69.50
2018-09-23T07:57:43.042Z,69.20
2018-09-23T08:00:13.219Z,68.60
2018-09-23T08:02:43.740Z,68.50
2018-09-23T08:05:13.712Z,67.90
2018-09-23T08:07:43.184Z,67.30
2018-09-23T08:10:12.675Z,65.90
2018-09-23T08:12:43.217Z,66.00
2018-09-23T08:15:13.337Z,65.90
2018-09-23T08:17:43.898Z,65.30
2018-09-23T08:20:14.214Z,64.60
2018-09-23T08:22:44.955Z,64.20
2018-09-23T08:25:14.889Z,63.50
2018-09-23T08:27:45.399Z,62.90
2018-09-23T08:30:15.731Z,62.40
2018-09-23T08:32:45.427Z,62.30
2018-09-23T08:35:16.376Z,62.80
2018-09-23T08:37:46.248Z,62.60
2018-09-23T08:40:16.179Z,62.30
2018-09-23T08:42:46.251Z,62.30
2018-09-23T08:45:16.956Z,62.20
2018-09-23T08:47:47.138Z,62.00
2018-09-23T08:50:18.098Z,61.70
2018-09-23T08:52:48.226Z,61.00
2018-09-23T08:55:18.108Z,61.00
2018-09-23T08:57:48.049Z,61.00
2018-09-23T09:00:18.721Z,61.10
2018-09-23T09:02:48.783Z,60.80
2018-09-23T09:05:18.647Z,60.70
2018-09-23T09:07:49.376Z,60.20
2018-09-23T09:10:19.590Z,60.20
2018-09-23T09:12:49.324Z,60.00
2018-09-23T09:15:20.236Z,60.00
2018-09-23T09:17:50.427Z,59.80
2018-09-23T09:20:20.999Z,59.80
2018-09-23T09:22:51.814Z,59.30
2018-09-23T09:25:21.988Z,59.20
2018-09-23T09:27:53.377Z,59.30
2018-09-23T09:30:23.968Z,59.50
2018-09-23T09:32:54.251Z,59.00
2018-09-23T09:35:25.110Z,59.10
2018-09-23T09:37:56.213Z,59.20
2018-09-23T09:40:26.626Z,59.40
2018-09-23T09:42:56.604Z,59.50
2018-09-23T09:45:29.890Z,59.70
2018-09-23T09:48:00.689Z,59.00
2018-09-23T09:50:30.325Z,59.10
2018-09-23T09:53:00.252Z,59.20
2018-09-23T09:55:30.907Z,59.40
2018-09-23T09:58:01.179Z,59.40
2018-09-23T10:00:35.071Z,59.20
2018-09-23T10:03:06.555Z,58.90
2018-09-23T10:05:36.607Z,58.80
2018-09-23T10:08:22.155Z,58.70
2018-09-23T10:10:52.039Z,58.60
2018-09-23T10:13:22.048Z,59.00
2018-09-23T10:15:51.985Z,59.30
2018-09-23T10:18:22.152Z,59.20
2018-09-23T10:20:52.391Z,59.20
2018-09-23T10:23:22.551Z,59.30
2018-09-23T10:25:52.599Z,59.50
2018-09-23T10:28:22.892Z,59.60
2018-09-23T10:30:54.201Z,59.70
2018-09-23T10:33:24.257Z,59.80
2018-09-23T10:35:54.706Z,59.40
2018-09-23T10:38:25.206Z,59.50
2018-09-23T10:40:55.525Z,59.40
2018-09-23T10:43:26.597Z,59.20
2018-09-23T10:45:58.180Z,58.90
2018-09-23T10:48:28.350Z,58.50
2018-09-23T10:51:00.398Z,58.40
2018-09-23T10:53:31.027Z,58.50
2018-09-23T10:56:01.402Z,58.80
2018-09-23T10:58:32.021Z,58.50
2018-09-23T11:01:02.498Z,58.80
2018-09-23T11:03:34.370Z,59.00
2018-09-23T11:06:04.813Z,59.00
2018-09-23T11:08:35.243Z,59.20
2018-09-23T11:11:06.193Z,59.30
2018-09-23T11:13:36.713Z,59.20
2018-09-23T11:16:07.202Z,59.00
2018-09-23T11:18:38.650Z,58.80
2018-09-23T11:21:11.162Z,59.70
2018-09-23T11:23:42.132Z,58.90
2018-09-23T11:26:12.620Z,58.60
2018-09-23T11:28:43.141Z,58.70
2018-09-23T11:31:13.619Z,59.10
2018-09-23T11:33:44.321Z,59.20
2018-09-23T11:36:15.982Z,59.20
2018-09-23T11:38:46.086Z,59.10
2018-09-23T11:41:16.831Z,58.90
2018-09-23T11:43:47.240Z,58.80
2018-09-23T11:46:17.452Z,58.70
2018-09-23T11:48:47.871Z,58.70
2018-09-23T11:51:18.200Z,58.60
2018-09-23T11:53:48.351Z,57.50
2018-09-23T11:56:18.527Z,57.60
2018-09-23T11:58:49.141Z,57.70
2018-09-23T12:01:19.495Z,57.60
2018-09-23T12:03:49.623Z,57.80
2018-09-23T12:06:19.643Z,57.90
2018-09-23T12:08:49.916Z,57.90
2018-09-23T12:11:20.415Z,57.40
2018-09-23T12:13:51.104Z,57.10
2018-09-23T12:16:21.757Z,56.90
2018-09-23T12:18:53.111Z,56.90
2018-09-23T12:21:24.229Z,56.50
2018-09-23T12:23:54.315Z,56.80
2018-09-23T12:26:25.724Z,55.80
2018-09-23T12:28:56.736Z,55.40
2018-09-23T12:31:28.319Z,55.10
2018-09-23T12:33:59.272Z,54.50
2018-09-23T12:36:30.490Z,53.90
2018-09-23T12:39:01.771Z,53.10
2018-09-23T12:41:33.054Z,52.40
2018-09-23T12:44:03.348Z,52.10
2018-09-23T12:46:34.673Z,51.40
2018-09-23T12:49:05.899Z,51.20
2018-09-23T12:51:36.595Z,50.90
2018-09-23T12:54:06.640Z,50.60
2018-09-23T12:56:37.527Z,50.30
2018-09-23T12:59:07.388Z,50.00
2018-09-23T13:01:37.444Z,49.40
2018-09-23T13:04:07.847Z,49.00
2018-09-23T13:06:37.800Z,48.60
2018-09-23T13:09:09.019Z,48.50
2018-09-23T13:11:39.155Z,48.00
2018-09-23T13:14:09.409Z,47.70
2018-09-23T13:16:39.888Z,47.30
2018-09-23T13:19:10.127Z,46.90
2018-09-23T13:21:40.659Z,46.70
2018-09-23T13:24:10.995Z,46.80
2018-09-23T13:26:41.731Z,46.30
2018-09-23T13:29:12.374Z,46.00
2018-09-23T13:31:42.204Z,46.20
2018-09-23T13:34:12.642Z,46.10
2018-09-23T13:36:42.543Z,45.80
2018-09-23T13:39:14.345Z,45.70
2018-09-23T13:41:44.424Z,45.50
2018-09-23T13:44:15.173Z,45.60
2018-09-23T13:46:44.811Z,45.70
2018-09-23T13:49:14.603Z,45.70
2018-09-23T13:51:45.979Z,45.50
2018-09-23T13:54:15.752Z,45.40
2018-09-23T13:56:46.048Z,45.40
2018-09-23T13:59:15.832Z,45.20
2018-09-23T14:01:46.383Z,45.00
2018-09-23T14:04:16.032Z,45.00
2018-09-23T14:06:46.319Z,45.00
2018-09-23T14:09:15.873Z,45.00
2018-09-23T14:11:45.424Z,45.20
2018-09-23T14:14:14.959Z,45.40
2018-09-23T14:16:44.500Z,45.60
2018-09-23T14:19:14.162Z,44.20
2018-09-23T14:21:43.716Z,44.50
2018-09-23T14:24:13.220Z,44.30
2018-09-23T14:26:42.708Z,44.20
2018-09-23T14:29:12.220Z,44.20
2018-09-23T14:31:43.707Z,44.80
2018-09-23T14:34:13.655Z,45.30
2018-09-23T14:36:46.128Z,45.80
2018-09-23T14:39:35.755Z,46.00
2018-09-23T14:42:06.224Z,46.50
2018-09-23T14:44:36.539Z,46.90
2018-09-23T14:47:06.416Z,47.10
2018-09-23T14:49:37.291Z,47.40
2018-09-23T14:52:07.717Z,47.60
2018-09-23T14:54:37.448Z,47.80
2018-09-23T14:57:07.663Z,48.10
2018-09-23T14:59:37.843Z,48.10
2018-09-23T15:02:07.442Z,48.00
2018-09-23T15:04:37.187Z,48.10
2018-09-23T15:07:07.707Z,48.30
2018-09-23T15:09:38.231Z,48.40
2018-09-23T15:12:08.930Z,48.60
2018-09-23T15:14:38.546Z,48.90
2018-09-23T15:17:08.816Z,49.00
2018-09-23T15:19:38.371Z,49.00
2018-09-23T15:22:08.727Z,49.20
2018-09-23T15:24:38.844Z,49.20
2018-09-23T15:27:09.902Z,49.40
2018-09-23T15:29:39.811Z,49.50
2018-09-23T15:32:08.957Z,49.70
2018-09-23T15:34:38.527Z,50.00
2018-09-23T15:37:08.069Z,50.10
2018-09-23T15:39:38.905Z,50.30
2018-09-23T15:42:08.492Z,50.50
2018-09-23T15:44:38.086Z,50.60
2018-09-23T15:47:07.864Z,50.80
2018-09-23T15:49:37.501Z,51.20
2018-09-23T15:52:07.553Z,51.60
2018-09-23T15:54:37.089Z,51.80
2018-09-23T15:57:06.916Z,52.00
2018-09-23T15:59:36.560Z,52.20
2018-09-23T16:02:06.124Z,52.30
2018-09-23T16:04:35.644Z,52.40
2018-09-23T16:07:05.231Z,52.50
2018-09-23T16:09:34.772Z,52.70
2018-09-23T16:12:04.392Z,53.00
2018-09-23T16:14:33.959Z,53.60
2018-09-23T16:17:04.212Z,53.70
2018-09-23T16:19:33.820Z,53.80
2018-09-23T16:22:03.384Z,54.20
2018-09-23T16:24:33.572Z,54.40
2018-09-23T16:27:03.186Z,54.70
2018-09-23T16:29:32.851Z,54.90
2018-09-23T16:32:02.880Z,55.10
2018-09-23T16:34:32.408Z,55.30
2018-09-23T16:37:02.537Z,55.50
2018-09-23T16:39:33.436Z,55.70
2018-09-23T16:42:04.077Z,56.50
2018-09-23T16:44:34.156Z,56.10
2018-09-23T16:47:12.060Z,56.40
2018-09-23T16:49:42.869Z,56.60
2018-09-23T16:52:12.436Z,58.20
2018-09-23T16:54:42.779Z,58.10
2018-09-23T16:57:13.363Z,58.00
2018-09-23T16:59:43.003Z,58.00
2018-09-23T17:02:12.579Z,58.20
2018-09-23T17:04:42.566Z,58.30
2018-09-23T17:07:13.185Z,58.50
2018-09-23T17:09:43.168Z,58.80
2018-09-23T17:12:13.787Z,59.10
2018-09-23T17:14:43.383Z,59.50
2018-09-23T17:17:13.392Z,59.70
2018-09-23T17:19:42.975Z,60.20
2018-09-23T17:22:12.752Z,60.50
2018-09-23T17:24:42.279Z,60.70
2018-09-23T17:27:11.818Z,60.80
2018-09-23T17:29:41.319Z,61.00
2018-09-23T17:32:11.030Z,61.50
2018-09-23T17:34:40.700Z,61.90
2018-09-23T17:37:10.199Z,62.50
2018-09-23T17:39:39.819Z,62.90
2018-09-23T17:42:09.401Z,63.40
2018-09-23T17:44:39.135Z,63.60
2018-09-23T17:47:08.770Z,63.70
2018-09-23T17:49:38.583Z,66.70
2018-09-23T17:52:08.144Z,66.40
2018-09-23T17:54:37.994Z,66.20
2018-09-23T17:57:07.823Z,66.10
2018-09-23T17:59:37.776Z,66.10
2018-09-23T18:02:08.090Z,66.00
2018-09-23T18:04:38.440Z,66.10
2018-09-23T18:07:08.381Z,66.30
2018-09-23T18:09:37.987Z,66.50
2018-09-23T18:12:07.546Z,69.50
2018-09-23T18:14:37.355Z,69.20
2018-09-23T18:17:07.041Z,69.20
2018-09-23T18:19:36.684Z,69.20
2018-09-23T18:22:06.445Z,69.10
2018-09-23T18:24:35.992Z,69.10
2018-09-23T18:27:05.606Z,69.20
2018-09-23T18:29:35.132Z,69.20
2018-09-23T18:32:04.720Z,69.40
2018-09-23T18:34:34.224Z,69.60
2018-09-23T18:37:04.813Z,69.90
2018-09-23T18:39:34.328Z,70.10
2018-09-23T18:42:04.040Z,70.20
2018-09-23T18:44:33.667Z,71.20
2018-09-23T18:47:03.247Z,70.50
2018-09-23T18:49:32.948Z,72.70
2018-09-23T18:52:02.579Z,72.30
2018-09-23T18:54:37.164Z,72.10
2018-09-23T18:57:06.812Z,71.80
2018-09-23T18:59:37.280Z,72.10
2018-09-23T19:02:07.485Z,71.90
2018-09-23T19:04:37.032Z,71.80
2018-09-23T19:07:06.556Z,71.70
2018-09-23T19:09:36.100Z,71.70
2018-09-23T19:12:05.768Z,71.60
2018-09-23T19:14:35.294Z,71.40
2018-09-23T19:17:04.831Z,73.00
2018-09-23T19:19:39.717Z,72.70
2018-09-23T19:22:15.149Z,72.50
2018-09-23T19:24:44.760Z,81.40
2018-09-23T19:27:14.388Z,70.30
2018-09-23T19:29:43.959Z,71.00
2018-09-23T19:32:13.651Z,71.40
2018-09-23T19:34:43.365Z,71.70
2018-09-23T19:37:12.912Z,71.90
2018-09-23T19:39:42.471Z,72.20
2018-09-23T19:42:13.216Z,72.40
2018-09-23T19:44:44.757Z,72.40
2018-09-23T19:47:46.112Z,72.50
2018-09-23T19:50:36.845Z,72.50
2018-09-23T19:53:06.392Z,72.50
2018-09-23T19:55:35.892Z,72.50
2018-09-23T19:58:05.537Z,72.70
2018-09-23T20:00:35.099Z,73.00
2018-09-23T20:03:04.636Z,73.10
2018-09-23T20:05:34.183Z,73.00
2018-09-23T20:08:03.808Z,73.40
2018-09-23T20:10:33.342Z,73.50
2018-09-23T20:13:02.895Z,73.60
2018-09-23T20:15:32.424Z,73.50
2018-09-23T20:18:01.979Z,73.50
2018-09-23T20:20:31.499Z,73.40
2018-09-23T20:23:01.032Z,73.40
2018-09-23T20:25:30.604Z,73.50
2018-09-23T20:28:11.147Z,73.30
2018-09-23T20:30:40.723Z,73.40
2018-09-23T20:33:11.261Z,73.40
2018-09-23T20:35:40.758Z,73.50
2018-09-23T20:38:10.402Z,73.50
2018-09-23T20:40:39.983Z,73.50
2018-09-23T20:43:09.548Z,73.50
2018-09-23T20:45:39.094Z,73.60
2018-09-23T20:48:09.090Z,73.70
2018-09-23T20:50:38.955Z,73.70
2018-09-23T20:53:09.739Z,73.80
2018-09-23T20:55:39.647Z,73.80
2018-09-23T20:58:09.632Z,74.00
2018-09-23T21:00:40.181Z,74.10
2018-09-23T21:03:10.064Z,74.10
2018-09-23T21:05:40.259Z,74.10
2018-09-23T21:08:10.183Z,74.20
2018-09-23T21:10:40.042Z,74.30
2018-09-23T21:13:09.953Z,74.40
2018-09-23T21:15:40.610Z,74.30
2018-09-23T21:18:10.703Z,74.30
2018-09-23T21:20:40.251Z,74.40
2018-09-23T21:23:10.333Z,75.90
2018-09-23T21:25:40.011Z,75.70
2018-09-23T21:28:09.807Z,75.40
2018-09-23T21:30:39.963Z,75.30
2018-09-23T21:33:10.610Z,75.30
2018-09-23T21:35:40.454Z,75.20
2018-09-23T21:38:10.416Z,75.10
2018-09-23T21:40:41.457Z,75.10
2018-09-23T21:43:11.483Z,75.10
2018-09-23T21:45:42.135Z,75.10
2018-09-23T21:48:11.648Z,75.00
2018-09-23T21:50:41.211Z,74.90
2018-09-23T21:53:11.132Z,75.90
2018-09-23T21:55:40.645Z,76.50
2018-09-23T21:58:10.292Z,75.40
2018-09-23T22:00:42.291Z,75.20
2018-09-23T22:03:13.438Z,75.10
2018-09-23T22:05:43.484Z,75.20
2018-09-23T22:08:14.314Z,75.20
2018-09-23T22:10:44.463Z,75.30
2018-09-23T22:13:14.459Z,75.40
2018-09-23T22:15:44.588Z,75.50
2018-09-23T22:18:14.527Z,75.60
2018-09-23T22:20:44.415Z,75.80
2018-09-23T22:23:15.132Z,76.10
2018-09-23T22:25:45.152Z,76.20
2018-09-23T22:28:15.060Z,76.20
2018-09-23T22:30:44.980Z,76.20
2018-09-23T22:33:14.499Z,76.20
2018-09-23T22:35:43.987Z,76.20
2018-09-23T22:38:13.552Z,76.10
2018-09-23T22:40:43.776Z,76.90
2018-09-23T22:43:13.984Z,76.00
2018-09-23T22:45:43.551Z,77.20
2018-09-23T22:48:13.483Z,77.00
2018-09-23T22:50:43.419Z,76.90
2018-09-23T22:53:13.255Z,76.70
2018-09-23T22:55:43.041Z,76.90
2018-09-23T22:58:13.234Z,76.90
2018-09-23T23:00:42.755Z,76.90
2018-09-23T23:03:12.480Z,76.80
2018-09-23T23:05:43.268Z,76.70
2018-09-23T23:08:13.131Z,76.70
2018-09-23T23:10:43.443Z,76.90
2018-09-23T23:13:13.897Z,77.00
2018-09-23T23:15:43.648Z,77.00
2018-09-23T23:18:13.363Z,77.20
2018-09-23T23:20:43.296Z,77.30
2018-09-23T23:23:13.283Z,77.40
2018-09-23T23:25:42.780Z,77.30
2018-09-23T23:28:12.808Z,77.20
2018-09-23T23:30:42.363Z,77.30
2018-09-23T23:33:12.235Z,77.40
2018-09-23T23:35:42.178Z,77.40
2018-09-23T23:38:13.085Z,77.60
2018-09-23T23:40:43.921Z,77.70
2018-09-23T23:43:13.863Z,77.80
2018-09-23T23:45:44.371Z,77.80
2018-09-23T23:48:14.819Z,77.80
2018-09-23T23:50:44.732Z,77.70
2018-09-23T23:53:15.459Z,77.80
2018-09-23T23:55:45.456Z,77.90
2018-09-23T23:58:15.432Z,78.10
